Time;durP1;ratioP1;P1;durP2;ratioP2;P2;SDS_P1;SDS_P2;PMS_P1;PMS_P2;Temp;Humidity;BMP_temperature;BMP_pressure;BME280_temperature;BME280_humidity;BME280_pressure;Samples;Min_cycle;Max_cycle;Signal;HPM_P1;HPM_P2
2023/08/07 00:00:26;;;;;;;1.55;0.93;;;;;;;18.69;96.36;99756.56;5023168;28;20060;-67
2023/08/07 00:02:52;;;;;;;0.85;0.75;;;;;;;18.66;96.14;99757.44;5012671;28;20034;-66
2023/08/07 00:05:17;;;;;;;2.35;0.60;;;;;;;18.69;96.04;99760.06;5021573;28;20024;-67
2023/08/07 00:07:43;;;;;;;0.68;0.40;;;;;;;18.70;96.06;99752.63;5021971;28;20510;-67
2023/08/07 00:10:09;;;;;;;0.52;0.52;;;;;;;18.66;96.12;99744.56;5009571;28;20164;-67
2023/08/07 00:12:34;;;;;;;1.60;0.88;;;;;;;18.62;95.80;99749.34;5012591;28;20486;-66
2023/08/07 00:15:01;;;;;;;0.63;0.40;;;;;;;18.68;95.73;99747.63;5005992;28;20037;-66
2023/08/07 00:17:26;;;;;;;0.85;0.60;;;;;;;18.69;94.68;99745.66;5018841;28;20033;-66
2023/08/07 00:19:52;;;;;;;0.60;0.60;;;;;;;18.64;94.82;99757.13;5025547;28;20033;-66
2023/08/07 00:22:17;;;;;;;1.33;0.70;;;;;;;18.59;95.16;99754.91;5006891;28;20100;-67
2023/08/07 00:24:42;;;;;;;1.00;0.47;;;;;;;18.61;94.95;99753.28;5030598;28;20461;-67
2023/08/07 00:27:10;;;;;;;3.30;0.60;;;;;;;18.60;95.01;99753.72;5031057;28;20018;-65
2023/08/07 00:29:36;;;;;;;0.82;0.45;;;;;;;18.57;94.31;99744.41;5025097;28;20033;-67
2023/08/07 00:32:02;;;;;;;1.65;0.80;;;;;;;18.59;94.10;99743.97;5025934;28;20034;-68
2023/08/07 00:34:28;;;;;;;0.65;0.52;;;;;;;18.59;94.12;99749.44;5005404;28;20028;-67
2023/08/07 00:36:53;;;;;;;2.75;0.82;;;;;;;18.58;93.72;99754.13;5013323;28;20033;-67
2023/08/07 00:39:18;;;;;;;1.23;0.70;;;;;;;18.53;93.46;99740.25;5030614;28;20099;-66
2023/08/07 00:41:44;;;;;;;0.50;0.50;;;;;;;18.53;93.41;99753.88;5008469;28;20030;-66
2023/08/07 00:44:09;;;;;;;1.67;0.77;;;;;;;18.51;93.55;99745.38;5025496;28;20037;-67
2023/08/07 00:46:35;;;;;;;1.52;0.57;;;;;;;18.52;93.02;99749.63;5030447;28;20029;-67
2023/08/07 00:49:01;;;;;;;0.68;0.40;;;;;;;18.50;93.27;99750.06;5013041;28;20388;-65
2023/08/07 00:51:27;;;;;;;0.82;0.77;;;;;;;18.50;92.40;99741.91;5020314;28;20402;-66
2023/08/07 00:53:53;;;;;;;1.33;0.57;;;;;;;18.54;92.19;99749.97;5025717;28;20033;-68
2023/08/07 00:56:18;;;;;;;0.60;0.45;;;;;;;18.53;92.02;99748.44;5008776;28;20387;-66
2023/08/07 00:58:44;;;;;;;0.55;0.30;;;;;;;18.46;92.22;99743.94;5030456;28;20025;-66
2023/08/07 01:01:10;;;;;;;1.77;0.60;;;;;;;18.40;92.60;99744.84;5030081;28;20509;-66
2023/08/07 01:03:35;;;;;;;1.95;0.65;;;;;;;18.46;91.70;99740.44;5001070;28;20119;-66
2023/08/07 01:06:01;;;;;;;0.73;0.50;;;;;;;18.44;91.23;99743.63;5029789;28;20416;-66
2023/08/07 01:08:27;;;;;;;0.68;0.50;;;;;;;18.39;91.27;99740.63;5012833;28;20090;-66
2023/08/07 01:11:09;;;;;;;12.80;0.60;;;;;;;18.36;91.15;99744.19;5008822;28;20036;-66
2023/08/07 01:13:40;;;;;;;0.67;0.43;;;;;;;18.35;91.22;99750.84;4998067;28;20041;-66
2023/08/07 01:16:13;;;;;;;0.43;0.30;;;;;;;18.32;91.47;99749.75;4996414;28;20084;-66
2023/08/07 01:18:40;;;;;;;0.60;0.50;;;;;;;18.29;90.93;99742.41;5012514;28;20026;-66
2023/08/07 01:21:06;;;;;;;1.60;0.60;;;;;;;18.26;90.98;99737.03;5015541;28;20564;-66
2023/08/07 01:23:32;;;;;;;0.47;0.40;;;;;;;18.24;90.89;99742.16;5002958;28;20486;-66
2023/08/07 01:25:58;;;;;;;0.30;0.25;;;;;;;18.27;90.54;99730.41;5016302;28;20040;-66
2023/08/07 01:28:33;;;;;;;0.40;0.40;;;;;;;18.22;90.78;99730.91;5033161;28;20040;-66
2023/08/07 01:31:07;;;;;;;0.65;0.50;;;;;;;18.21;91.01;99722.00;5026344;28;20029;-66
2023/08/07 01:33:48;;;;;;;0.55;0.45;;;;;;;18.26;90.32;99723.41;5008634;28;20040;-66
2023/08/07 01:36:15;;;;;;;0.80;0.47;;;;;;;18.28;90.01;99721.78;5021369;28;20103;-66
2023/08/07 01:38:42;;;;;;;0.32;0.32;;;;;;;18.23;90.67;99724.28;5032284;28;20037;-66
2023/08/07 01:41:08;;;;;;;1.55;0.20;;;;;;;18.19;90.76;99727.09;5008981;28;20115;-66
2023/08/07 01:43:34;;;;;;;1.45;1.00;;;;;;;18.12;91.33;99719.09;5011888;28;20029;-66
2023/08/07 01:46:00;;;;;;;0.47;0.40;;;;;;;18.14;90.79;99710.50;5032982;28;20037;-66
2023/08/07 01:48:26;;;;;;;0.85;0.47;;;;;;;18.12;91.09;99721.06;5025796;28;20041;-66
2023/08/07 01:50:53;;;;;;;1.35;0.73;;;;;;;18.13;91.07;99708.97;5025421;28;20310;-66
2023/08/07 01:53:18;;;;;;;0.55;0.30;;;;;;;18.12;91.09;99707.44;5032928;28;20034;-66
2023/08/07 01:55:44;;;;;;;0.55;0.40;;;;;;;18.14;90.30;99713.22;5033343;28;20052;-66
2023/08/07 01:58:09;;;;;;;0.20;0.20;;;;;;;18.08;90.87;99710.25;5009930;28;20021;-66
2023/08/07 02:00:35;;;;;;;1.30;0.50;;;;;;;18.04;91.32;99704.13;5004233;28;20057;-66
2023/08/07 02:03:00;;;;;;;0.43;0.35;;;;;;;18.09;91.03;99713.75;5028787;28;20405;-66
2023/08/07 02:05:26;;;;;;;1.35;0.47;;;;;;;18.14;90.42;99711.25;5025527;28;20033;-66
2023/08/07 02:07:51;;;;;;;2.17;0.60;;;;;;;18.03;90.90;99713.50;5020430;28;20481;-66
2023/08/07 02:10:19;;;;;;;1.33;1.05;;;;;;;18.02;90.76;99710.00;5028287;28;20021;-66
2023/08/07 02:12:45;;;;;;;0.70;0.30;;;;;;;18.09;90.00;99714.50;5032093;28;20033;-66
2023/08/07 02:15:10;;;;;;;1.50;0.57;;;;;;;18.07;90.43;99707.94;5027578;28;20025;-66
2023/08/07 02:17:38;;;;;;;1.73;0.60;;;;;;;18.13;90.12;99714.41;5009922;28;20509;-66
2023/08/07 02:20:05;;;;;;;0.32;0.30;;;;;;;18.09;89.88;99709.06;5011768;28;20078;-66
2023/08/07 02:22:31;;;;;;;0.70;0.50;;;;;;;18.09;89.61;99700.88;5020511;28;20034;-66
2023/08/07 02:24:56;;;;;;;0.60;0.30;;;;;;;18.10;89.87;99702.41;5028597;28;20064;-66
2023/08/07 02:27:22;;;;;;;0.20;0.20;;;;;;;18.12;89.44;99702.75;4998857;28;20021;-66
2023/08/07 02:29:47;;;;;;;0.40;0.38;;;;;;;18.10;89.12;99707.84;5030857;28;20668;-66
2023/08/07 02:32:13;;;;;;;0.85;0.47;;;;;;;18.15;88.61;99695.66;5031686;28;20037;-66
2023/08/07 02:34:38;;;;;;;0.93;0.40;;;;;;;18.07;89.10;99699.78;5031562;28;20104;-66
2023/08/07 02:37:04;;;;;;;0.43;0.28;;;;;;;18.02;89.45;99701.06;4998758;28;20761;-66
2023/08/07 02:39:29;;;;;;;0.50;0.40;;;;;;;18.00;89.78;99693.31;5022187;28;20040;-66
2023/08/07 02:41:55;;;;;;;0.80;0.63;;;;;;;18.13;88.97;99698.84;5007539;28;20029;-66
2023/08/07 02:44:20;;;;;;;0.60;0.50;;;;;;;18.07;88.96;99694.31;5029828;28;20119;-66
2023/08/07 02:46:46;;;;;;;0.52;0.52;;;;;;;18.03;89.09;99708.81;5013950;28;20393;-66
2023/08/07 02:49:11;;;;;;;1.38;0.52;;;;;;;18.08;88.75;99706.78;5020683;28;20069;-66
2023/08/07 02:51:37;;;;;;;0.20;0.20;;;;;;;18.06;88.47;99709.16;5026370;28;20018;-66
2023/08/07 02:54:02;;;;;;;0.30;0.30;;;;;;;18.03;88.35;99708.03;5030630;28;20040;-66
2023/08/07 02:56:28;;;;;;;0.68;0.30;;;;;;;18.11;88.27;99705.91;4997572;28;20017;-66
2023/08/07 02:58:53;;;;;;;0.30;0.28;;;;;;;18.03;88.57;99705.31;5030659;28;20416;-66
2023/08/07 03:01:21;;;;;;;0.85;0.47;;;;;;;18.03;88.39;99705.31;4987837;28;20145;-66
2023/08/07 03:03:46;;;;;;;0.30;0.30;;;;;;;18.09;88.71;99709.06;5030461;28;20108;-66
2023/08/07 03:06:32;;;;;;;0.40;0.32;;;;;;;18.11;88.58;99716.81;5014895;28;20117;-66
2023/08/07 03:08:57;;;;;;;2.83;0.73;;;;;;;18.01;89.44;99716.66;4952286;28;20055;-66
2023/08/07 03:11:23;;;;;;;1.33;0.50;;;;;;;18.12;88.59;99707.44;4943520;28;20035;-65
2023/08/07 03:13:49;;;;;;;2.15;0.70;;;;;;;18.03;89.37;99722.44;4963258;28;20507;-66
2023/08/07 03:16:15;;;;;;;0.45;0.45;;;;;;;18.03;89.62;99716.22;4922517;28;20035;-66
2023/08/07 03:18:40;;;;;;;1.30;0.52;;;;;;;18.10;89.13;99716.03;4942606;29;20035;-66
2023/08/07 03:21:06;;;;;;;0.73;0.43;;;;;;;18.12;88.79;99710.91;4948342;28;20082;-66
2023/08/07 03:23:31;;;;;;;0.45;0.35;;;;;;;18.07;89.16;99718.84;4955703;28;20039;-66
2023/08/07 03:26:07;;;;;;;1.42;0.28;;;;;;;18.04;89.55;99710.34;4961755;28;20157;-66
2023/08/07 03:28:34;;;;;;;0.50;0.50;;;;;;;18.06;90.17;99717.34;4944104;28;20090;-66
2023/08/07 03:30:59;;;;;;;0.47;0.47;;;;;;;18.06;90.28;99717.34;4962428;28;20027;-66
2023/08/07 03:33:26;;;;;;;0.50;0.50;;;;;;;18.08;90.95;99712.22;4942448;28;20113;-66
2023/08/07 03:35:52;;;;;;;0.47;0.30;;;;;;;18.26;89.35;99717.97;4941198;29;20039;-66
2023/08/07 03:38:19;;;;;;;0.50;0.25;;;;;;;18.22;89.46;99718.06;4958276;28;20050;-68
2023/08/07 03:40:46;;;;;;;0.20;0.20;;;;;;;18.18;90.00;99713.88;4942609;28;20031;-66
2023/08/07 03:43:12;;;;;;;2.38;0.52;;;;;;;18.21;89.88;99715.75;4949838;28;20102;-66
2023/08/07 03:45:39;;;;;;;0.35;0.30;;;;;;;18.20;90.12;99709.53;4975107;28;20406;-66
2023/08/07 03:48:05;;;;;;;0.20;0.20;;;;;;;18.20;90.50;99716.94;4994375;28;20036;-66
2023/08/07 03:50:30;;;;;;;3.58;0.60;;;;;;;18.28;90.56;99716.34;4980952;28;20034;-66
2023/08/07 03:52:56;;;;;;;0.75;0.55;;;;;;;18.32;90.50;99716.25;5030212;28;20029;-66
2023/08/07 03:55:25;;;;;;;0.90;0.50;;;;;;;18.26;90.86;99717.97;5013830;28;20044;-66
2023/08/07 03:57:50;;;;;;;0.47;0.38;;;;;;;18.27;91.07;99716.78;5029701;28;20029;-66
2023/08/07 04:00:16;;;;;;;2.08;0.38;;;;;;;18.30;91.04;99708.50;5024951;28;20108;-66
2023/08/07 04:02:42;;;;;;;0.40;0.30;;;;;;;18.35;90.74;99715.41;5019128;28;20036;-66
2023/08/07 04:05:10;;;;;;;0.77;0.40;;;;;;;18.31;90.99;99706.56;5029532;28;20075;-66
2023/08/07 04:07:36;;;;;;;0.65;0.45;;;;;;;18.31;91.27;99703.81;5013366;28;20520;-66
2023/08/07 04:10:02;;;;;;;0.70;0.40;;;;;;;18.28;91.57;99710.13;5027625;28;20051;-66
2023/08/07 04:12:27;;;;;;;0.70;0.60;;;;;;;18.35;91.56;99705.25;5003987;28;20029;-66
2023/08/07 04:14:53;;;;;;;1.42;0.77;;;;;;;18.32;91.49;99705.34;5012912;28;20037;-66
2023/08/07 04:17:18;;;;;;;0.50;0.40;;;;;;;18.35;91.37;99707.97;4998156;28;20037;-66
2023/08/07 04:19:44;;;;;;;1.20;0.60;;;;;;;18.35;91.86;99688.88;5004096;28;20037;-66
2023/08/07 04:22:09;;;;;;;0.55;0.40;;;;;;;18.39;91.79;99692.28;5026848;28;20120;-65
2023/08/07 04:24:34;;;;;;;0.45;0.40;;;;;;;18.41;91.79;99697.28;5010346;28;20029;-66
2023/08/07 04:27:03;;;;;;;0.57;0.40;;;;;;;18.31;92.62;99701.09;5012378;28;20022;-66
2023/08/07 04:29:28;;;;;;;0.30;0.30;;;;;;;18.44;92.44;99704.66;5012651;28;20034;-66
2023/08/07 04:31:54;;;;;;;0.50;0.32;;;;;;;18.38;92.44;99715.31;5022059;28;20088;-65
2023/08/07 04:34:21;;;;;;;0.43;0.35;;;;;;;18.35;92.97;99710.69;5021243;28;20029;-66
2023/08/07 04:36:46;;;;;;;0.60;0.40;;;;;;;18.37;92.77;99708.31;5028635;28;20405;-66
2023/08/07 04:39:13;;;;;;;2.22;1.45;;;;;;;18.41;92.71;99716.38;5030544;28;20021;-66
2023/08/07 04:41:39;;;;;;;0.50;0.50;;;;;;;18.43;92.72;99711.28;5018837;28;20053;-65
2023/08/07 04:44:04;;;;;;;0.32;0.30;;;;;;;18.45;92.99;99703.44;5027768;28;20045;-66
2023/08/07 04:46:30;;;;;;;0.65;0.40;;;;;;;18.42;92.99;99715.19;5030567;28;20052;-66
2023/08/07 04:48:55;;;;;;;0.52;0.40;;;;;;;18.45;92.93;99714.34;5025494;28;20036;-66
2023/08/07 04:51:21;;;;;;;0.38;0.30;;;;;;;18.44;93.28;99710.88;5025745;28;20065;-66
2023/08/07 04:53:50;;;;;;;0.40;0.38;;;;;;;18.45;93.33;99720.59;4998958;28;20033;-66
2023/08/07 04:56:16;;;;;;;0.70;0.50;;;;;;;18.49;92.95;99720.47;5006551;28;20045;-65
2023/08/07 04:58:41;;;;;;;0.85;0.40;;;;;;;18.46;93.03;99715.91;5031339;28;20095;-66
2023/08/07 05:01:06;;;;;;;3.13;0.50;;;;;;;18.47;93.27;99725.59;5025706;28;20034;-66
2023/08/07 05:03:32;;;;;;;0.68;0.40;;;;;;;18.47;93.44;99712.75;5019889;28;20439;-66
2023/08/07 05:05:58;;;;;;;1.25;0.47;;;;;;;18.54;93.44;99712.53;5034193;28;20500;-66
2023/08/07 05:08:24;;;;;;;0.60;0.40;;;;;;;18.61;93.24;99717.03;5033873;28;20033;-65
2023/08/07 05:10:49;;;;;;;1.17;0.73;;;;;;;18.59;93.64;99716.72;5030335;28;20095;-66
2023/08/07 05:13:18;;;;;;;0.50;0.40;;;;;;;18.58;93.42;99713.22;5033581;28;20351;-66
2023/08/07 05:15:43;;;;;;;0.50;0.40;;;;;;;18.57;93.69;99708.97;5029524;28;20036;-68
2023/08/07 05:18:09;;;;;;;0.43;0.22;;;;;;;18.58;93.62;99702.28;5034789;28;20470;-67
2023/08/07 05:20:34;;;;;;;0.40;0.28;;;;;;;18.70;92.92;99698.06;5027540;28;20406;-66
2023/08/07 05:23:00;;;;;;;0.52;0.32;;;;;;;18.67;93.37;99704.41;5027125;28;20060;-67
2023/08/07 05:25:25;;;;;;;1.23;0.52;;;;;;;18.75;93.62;99703.00;5034647;28;20044;-67
2023/08/07 05:27:51;;;;;;;1.48;0.40;;;;;;;18.70;93.93;99709.75;5017004;28;20037;-67
2023/08/07 05:30:16;;;;;;;0.40;0.30;;;;;;;18.69;94.31;99713.69;4996067;28;20046;-67
2023/08/07 05:32:42;;;;;;;0.63;0.45;;;;;;;18.82;93.95;99716.44;5014218;28;20114;-66
2023/08/07 05:35:08;;;;;;;0.88;0.60;;;;;;;18.77;94.21;99717.75;5022576;28;20057;-66
2023/08/07 05:37:34;;;;;;;1.15;0.52;;;;;;;18.83;93.97;99721.47;4981548;28;20090;-66
2023/08/07 05:40:00;;;;;;;0.75;0.50;;;;;;;18.87;93.79;99711.22;4980379;28;20026;-67
2023/08/07 05:42:25;;;;;;;0.77;0.60;;;;;;;18.92;93.66;99709.91;5000560;28;20037;-67
2023/08/07 05:44:50;;;;;;;1.88;0.70;;;;;;;18.87;93.76;99718.66;4991791;28;20136;-67
2023/08/07 05:47:16;;;;;;;1.00;0.50;;;;;;;18.81;94.59;99717.66;5008964;28;20033;-67
2023/08/07 05:49:41;;;;;;;2.08;1.08;;;;;;;18.79;94.77;99723.53;5002064;28;20045;-67
2023/08/07 05:52:07;;;;;;;0.68;0.43;;;;;;;18.92;94.32;99720.84;5005481;28;20049;-67
2023/08/07 05:54:33;;;;;;;3.10;0.73;;;;;;;18.90;94.42;99718.53;5020487;28;20037;-65
2023/08/07 05:56:59;;;;;;;0.80;0.68;;;;;;;18.96;94.30;99712.53;5022291;28;20030;-65
2023/08/07 05:59:24;;;;;;;2.08;0.50;;;;;;;18.94;94.44;99726.63;5018968;28;20068;-65
2023/08/07 06:01:50;;;;;;;3.20;0.55;;;;;;;19.04;93.84;99727.50;5031524;28;20087;-66
2023/08/07 06:04:16;;;;;;;2.47;0.40;;;;;;;18.98;93.93;99730.03;5026091;28;20113;-65
2023/08/07 06:06:42;;;;;;;0.47;0.35;;;;;;;19.04;93.37;99728.28;5030286;28;20275;-69
2023/08/07 06:09:08;;;;;;;1.85;0.50;;;;;;;19.08;93.12;99725.44;5012429;28;20044;-68
2023/08/07 06:11:54;;;;;;;1.02;0.52;;;;;;;19.07;93.50;99726.63;5027772;28;20041;-65
2023/08/07 06:14:19;;;;;;;0.50;0.50;;;;;;;19.20;92.91;99728.19;4950890;29;20075;-65
2023/08/07 06:16:45;;;;;;;0.52;0.40;;;;;;;19.30;92.05;99735.28;4952474;29;20565;-65
2023/08/07 06:19:10;;;;;;;0.95;0.75;;;;;;;19.29;91.83;99728.31;4951419;29;20047;-66
2023/08/07 06:21:36;;;;;;;0.30;0.30;;;;;;;19.40;90.60;99733.47;4947992;29;20646;-65
2023/08/07 06:24:01;;;;;;;1.27;0.73;;;;;;;19.35;89.96;99731.28;4951751;29;20047;-65
2023/08/07 06:26:27;;;;;;;1.48;0.63;;;;;;;19.31;90.23;99733.34;4952230;29;20055;-65
2023/08/07 06:28:52;;;;;;;0.88;0.45;;;;;;;19.29;90.00;99731.03;4949543;29;20058;-65
2023/08/07 06:31:18;;;;;;;0.77;0.50;;;;;;;19.23;90.03;99721.88;4947118;29;20114;-65
2023/08/07 06:33:43;;;;;;;3.35;0.60;;;;;;;19.16;90.04;99719.34;4953456;29;20621;-65
2023/08/07 06:36:09;;;;;;;0.40;0.40;;;;;;;19.27;90.07;99721.75;4953065;29;20031;-67
2023/08/07 06:38:34;;;;;;;0.40;0.35;;;;;;;19.26;90.18;99731.91;4951616;29;20524;-65
2023/08/07 06:41:00;;;;;;;0.30;0.30;;;;;;;19.28;90.04;99732.22;4946547;29;20385;-66
2023/08/07 06:43:26;;;;;;;1.35;0.40;;;;;;;19.20;90.80;99739.09;4934962;29;20069;-65
2023/08/07 06:45:53;;;;;;;1.25;0.45;;;;;;;19.24;90.80;99731.56;4952521;29;20102;-65
2023/08/07 06:48:18;;;;;;;0.85;0.30;;;;;;;19.20;91.17;99741.09;4951299;28;20043;-67
2023/08/07 06:50:47;;;;;;;1.45;0.68;;;;;;;19.22;91.93;99730.50;4966353;28;20115;-65
2023/08/07 06:53:13;;;;;;;1.52;0.73;;;;;;;19.41;91.05;99743.22;5024368;28;20037;-65
2023/08/07 06:55:41;;;;;;;1.83;0.40;;;;;;;19.58;89.94;99742.66;5013302;28;20485;-64
2023/08/07 06:58:06;;;;;;;4.28;0.50;;;;;;;19.53;89.31;99737.00;5022524;28;20367;-65
2023/08/07 07:00:33;;;;;;;1.50;0.82;;;;;;;19.57;89.33;99751.28;5028974;28;20052;-66
2023/08/07 07:02:59;;;;;;;2.85;0.85;;;;;;;19.52;87.55;99746.38;5028072;28;20045;-65
2023/08/07 07:05:24;;;;;;;1.70;0.60;;;;;;;19.42;87.74;99742.75;5027978;28;20103;-68
2023/08/07 07:07:50;;;;;;;1.17;0.60;;;;;;;19.45;87.84;99746.59;5020987;28;20061;-66
2023/08/07 07:10:15;;;;;;;0.90;0.55;;;;;;;19.47;87.79;99747.66;5016787;28;20042;-69
2023/08/07 07:12:41;;;;;;;1.65;0.80;;;;;;;19.53;87.89;99747.91;5030910;28;20053;-65
2023/08/07 07:15:07;;;;;;;1.52;0.70;;;;;;;19.63;87.03;99757.72;4994416;28;20041;-65
2023/08/07 07:17:32;;;;;;;0.88;0.60;;;;;;;19.67;86.48;99759.16;5030255;28;20410;-67
2023/08/07 07:19:58;;;;;;;2.15;1.40;;;;;;;19.84;86.21;99751.59;5018828;28;20037;-65
2023/08/07 07:22:23;;;;;;;0.68;0.43;;;;;;;19.92;85.74;99752.88;5023718;28;21115;-66
2023/08/07 07:24:48;;;;;;;3.47;0.68;;;;;;;19.97;85.21;99752.34;5003677;28;20513;-69
2023/08/07 07:27:14;;;;;;;1.00;0.40;;;;;;;20.06;83.55;99752.44;5030333;28;20068;-65
2023/08/07 07:29:39;;;;;;;2.58;1.02;;;;;;;20.10;81.06;99753.09;5030206;28;20071;-65
2023/08/07 07:32:06;;;;;;;0.90;0.40;;;;;;;19.93;81.04;99743.50;5005924;28;20048;-67
2023/08/07 07:34:33;;;;;;;4.43;0.73;;;;;;;20.02;80.72;99753.75;5006175;28;20029;-65
2023/08/07 07:36:58;;;;;;;1.13;0.50;;;;;;;20.18;80.53;99759.06;5015232;28;20048;-65
2023/08/07 07:39:24;;;;;;;5.00;0.95;;;;;;;20.37;78.91;99750.63;5023060;28;20034;-68
2023/08/07 07:41:49;;;;;;;0.70;0.47;;;;;;;20.33;77.64;99765.63;5024383;28;20036;-68
2023/08/07 07:44:14;;;;;;;3.92;0.52;;;;;;;20.32;76.90;99764.09;5010949;28;20038;-65
2023/08/07 07:46:40;;;;;;;0.70;0.52;;;;;;;20.41;74.89;99773.16;5008337;28;20033;-65
2023/08/07 07:49:06;;;;;;;0.80;0.50;;;;;;;20.26;74.79;99790.50;5016638;28;20033;-66
2023/08/07 07:51:32;;;;;;;0.70;0.55;;;;;;;20.08;76.50;99798.47;5029504;28;20032;-66
2023/08/07 07:53:58;;;;;;;4.22;1.08;;;;;;;19.99;77.44;99790.19;5006700;28;20041;-68
2023/08/07 07:56:23;;;;;;;1.00;0.85;;;;;;;19.74;79.00;99791.72;5027864;28;20029;-66
2023/08/07 07:58:49;;;;;;;2.03;0.52;;;;;;;19.78;80.27;99786.91;5030195;28;20457;-67
2023/08/07 08:01:14;;;;;;;7.28;0.55;;;;;;;19.90;80.13;99784.63;5022965;28;20053;-66
2023/08/07 08:03:40;;;;;;;1.42;0.55;;;;;;;20.05;79.77;99772.03;5016980;28;20049;-66
2023/08/07 08:06:05;;;;;;;3.25;0.63;;;;;;;20.32;79.82;99786.00;5015891;28;20038;-67
2023/08/07 08:08:31;;;;;;;5.80;0.52;;;;;;;20.61;78.82;99790.03;5005678;28;20030;-66
2023/08/07 08:10:56;;;;;;;1.98;0.60;;;;;;;20.80;78.17;99777.28;5002485;28;20025;-66
2023/08/07 08:13:22;;;;;;;0.20;0.20;;;;;;;21.04;77.98;99792.06;5005658;28;21045;-65
2023/08/07 08:15:47;;;;;;;2.35;0.65;;;;;;;21.31;77.95;99796.97;5009373;28;20125;-67
2023/08/07 08:18:13;;;;;;;0.50;0.50;;;;;;;21.44;76.37;99794.88;5029880;28;20065;-65
2023/08/07 08:20:39;;;;;;;2.90;0.52;;;;;;;21.60;74.89;99793.91;5020527;28;20026;-65
2023/08/07 08:23:05;;;;;;;2.15;0.68;;;;;;;21.67;74.61;99791.63;5016711;28;20037;-67
2023/08/07 08:25:32;;;;;;;3.72;0.60;;;;;;;21.81;72.52;99802.09;5021320;28;20053;-66
2023/08/07 08:27:59;;;;;;;0.65;0.40;;;;;;;21.68;71.19;99806.84;4996560;28;20069;-66
2023/08/07 08:30:24;;;;;;;2.17;0.47;;;;;;;21.40;69.26;99803.25;5011600;28;20041;-66
2023/08/07 08:32:50;;;;;;;2.17;1.02;;;;;;;21.08;69.95;99819.34;5023541;28;20095;-66
2023/08/07 08:35:15;;;;;;;1.23;0.65;;;;;;;21.03;72.18;99834.34;5027346;28;20501;-67
2023/08/07 08:37:41;;;;;;;5.00;0.55;;;;;;;20.69;74.57;99832.38;5006339;28;20037;-67
2023/08/07 08:40:08;;;;;;;2.22;0.70;;;;;;;20.63;76.14;99833.41;5020941;28;20060;-67
2023/08/07 08:42:34;;;;;;;1.80;0.75;;;;;;;20.63;77.19;99833.41;5020239;28;20061;-67
2023/08/07 08:45:04;;;;;;;1.63;0.80;;;;;;;20.63;77.08;99842.34;4987256;28;20045;-66
2023/08/07 08:47:32;;;;;;;4.38;0.60;;;;;;;20.52;77.56;99841.19;4997502;28;20128;-67
2023/08/07 08:50:07;;;;;;;3.13;0.70;;;;;;;20.50;78.40;99846.31;5024742;28;20025;-67
2023/08/07 08:52:43;;;;;;;1.77;0.35;;;;;;;20.44;78.69;99839.91;5024832;28;20121;-67
2023/08/07 08:55:10;;;;;;;2.22;0.95;;;;;;;20.45;79.27;99855.09;5012069;28;20041;-66
2023/08/07 08:57:37;;;;;;;1.63;0.35;;;;;;;20.45;79.39;99855.09;5011340;28;20069;-66
2023/08/07 09:00:15;;;;;;;1.80;0.52;;;;;;;20.45;79.79;99844.94;5015309;28;20465;-66
2023/08/07 09:02:43;;;;;;;3.47;0.57;;;;;;;20.34;80.46;99852.72;4992859;28;20048;-66
2023/08/07 09:05:09;;;;;;;2.90;0.65;;;;;;;20.53;79.52;99854.44;4998551;28;20022;-66
2023/08/07 09:07:35;;;;;;;4.00;0.73;;;;;;;20.47;79.59;99860.91;5002143;28;20022;-67
2023/08/07 09:10:03;;;;;;;0.70;0.40;;;;;;;20.34;79.99;99862.91;5009673;28;20498;-66
2023/08/07 09:12:31;;;;;;;2.30;0.65;;;;;;;20.30;80.39;99865.00;5018707;28;20048;-67
2023/08/07 09:15:17;;;;;;;0.60;0.40;;;;;;;20.26;80.79;99853.38;5023208;28;20034;-67
2023/08/07 09:17:44;;;;;;;1.75;0.40;;;;;;;20.27;80.15;99860.38;4967242;28;20046;-66
2023/08/07 09:20:14;;;;;;;1.67;0.60;;;;;;;20.32;80.09;99862.56;4963015;28;20140;-66
2023/08/07 09:22:40;;;;;;;1.13;0.40;;;;;;;20.38;77.87;99852.63;4943784;28;20079;-66
2023/08/07 09:25:06;;;;;;;4.35;0.75;;;;;;;20.24;78.01;99855.81;4959141;28;20053;-66
2023/08/07 09:27:33;;;;;;;2.63;0.57;;;;;;;20.25;77.57;99854.59;4947469;28;20039;-66
2023/08/07 09:29:59;;;;;;;0.63;0.45;;;;;;;20.17;76.95;99856.75;4965209;28;20142;-66
2023/08/07 09:32:24;;;;;;;1.23;0.25;;;;;;;20.31;76.35;99856.34;4960147;28;20105;-66
2023/08/07 09:34:53;;;;;;;3.35;0.52;;;;;;;20.48;74.16;99835.84;4965450;28;20047;-67
2023/08/07 09:37:23;;;;;;;1.25;0.70;;;;;;;20.59;73.68;99852.69;4947864;28;20031;-66
2023/08/07 09:39:48;;;;;;;2.42;0.70;;;;;;;20.78;70.99;99850.84;4965131;28;20050;-66
2023/08/07 09:42:15;;;;;;;2.03;0.90;;;;;;;20.97;70.98;99859.97;4953187;28;20054;-66
2023/08/07 09:44:41;;;;;;;0.85;0.57;;;;;;;21.19;69.94;99850.59;4963104;28;20219;-66
2023/08/07 09:47:14;;;;;;;1.50;0.70;;;;;;;21.34;68.57;99867.28;4971701;28;20050;-67
2023/08/07 09:49:40;;;;;;;1.67;0.65;;;;;;;21.45;64.57;99860.19;4971215;28;20042;-67
2023/08/07 09:52:07;;;;;;;1.02;0.40;;;;;;;21.42;64.36;99858.38;4954315;28;20055;-67
2023/08/07 09:54:33;;;;;;;3.58;0.70;;;;;;;21.40;63.86;99866.28;4977655;28;20059;-67
2023/08/07 09:57:06;;;;;;;2.08;0.38;;;;;;;21.39;61.06;99862.00;5031050;28;20037;-66
2023/08/07 09:59:33;;;;;;;1.52;0.75;;;;;;;21.34;60.36;99880.97;5012426;28;20437;-66
2023/08/07 10:01:59;;;;;;;1.13;0.40;;;;;;;21.57;59.09;99886.00;5014631;28;20505;-66
2023/08/07 10:04:26;;;;;;;1.52;0.60;;;;;;;21.78;58.52;99860.53;5022103;28;20133;-66
2023/08/07 10:06:52;;;;;;;4.32;0.65;;;;;;;22.10;57.17;99859.31;5020822;28;20053;-65
2023/08/07 10:09:18;;;;;;;1.05;0.63;;;;;;;22.30;56.92;99857.69;4980588;28;20033;-67
2023/08/07 10:11:43;;;;;;;0.63;0.40;;;;;;;22.48;55.79;99873.44;5016845;28;20049;-67
2023/08/07 10:14:09;;;;;;;0.50;0.30;;;;;;;22.51;55.06;99869.81;5020813;28;20542;-65
2023/08/07 10:16:39;;;;;;;1.55;0.50;;;;;;;22.65;54.75;99877.47;5013388;28;20113;-66
2023/08/07 10:19:05;;;;;;;3.67;0.68;;;;;;;22.79;53.33;99876.88;5014826;28;20065;-66
2023/08/07 10:21:35;;;;;;;1.52;0.57;;;;;;;22.89;53.81;99894.88;4999238;28;20087;-66
2023/08/07 10:24:03;;;;;;;1.15;0.45;;;;;;;23.01;53.61;99874.75;5021014;28;20486;-67
2023/08/07 10:26:30;;;;;;;3.22;0.43;;;;;;;23.29;53.38;99875.47;5021733;28;20060;-67
2023/08/07 10:28:57;;;;;;;1.08;0.32;;;;;;;23.64;54.03;99860.16;5032699;28;20025;-65
2023/08/07 10:31:24;;;;;;;3.67;0.45;;;;;;;23.92;52.59;99877.34;5024842;28;20394;-68
2023/08/07 10:33:49;;;;;;;1.67;0.47;;;;;;;23.77;53.17;99874.47;4990155;28;20082;-68
2023/08/07 10:36:17;;;;;;;2.05;0.70;;;;;;;23.54;52.90;99890.91;5025035;28;20033;-68
2023/08/07 10:38:42;;;;;;;2.22;0.95;;;;;;;23.51;51.73;99870.59;5018310;28;20042;-68
2023/08/07 10:41:09;;;;;;;2.45;0.70;;;;;;;23.31;51.43;99875.81;5014457;28;20082;-67
2023/08/07 10:43:39;;;;;;;1.23;0.32;;;;;;;23.23;51.36;99880.81;5026968;28;20026;-66
2023/08/07 10:46:12;;;;;;;1.13;0.45;;;;;;;23.35;51.49;99881.13;5029230;28;20109;-68
2023/08/07 10:48:39;;;;;;;3.67;0.30;;;;;;;23.25;50.57;99892.13;5004748;28;20552;-68
2023/08/07 10:51:05;;;;;;;0.70;0.40;;;;;;;23.20;50.21;99890.00;5014898;28;20112;-64
2023/08/07 10:53:33;;;;;;;2.55;0.45;;;;;;;23.03;51.52;99897.03;5008086;28;20104;-68
2023/08/07 10:56:08;;;;;;;0.82;0.40;;;;;;;22.97;50.88;99900.84;5018744;28;20402;-65
2023/08/07 10:58:40;;;;;;;1.13;0.40;;;;;;;22.78;51.22;99891.06;5022393;28;20037;-65
2023/08/07 11:01:21;;;;;;;3.08;0.70;;;;;;;22.65;50.67;99884.94;5020385;28;20121;-65
2023/08/07 11:03:57;;;;;;;3.40;0.57;;;;;;;22.70;51.10;99889.81;5004468;28;20180;-65
2023/08/07 11:06:34;;;;;;;0.65;0.38;;;;;;;22.98;51.21;99880.38;5028437;28;20371;-67
2023/08/07 11:09:02;;;;;;;2.38;0.35;;;;;;;23.28;51.13;99874.72;5031980;28;20034;-65
2023/08/07 11:11:28;;;;;;;3.20;0.30;;;;;;;23.45;50.31;99882.66;5029273;28;20022;-68
2023/08/07 11:13:54;;;;;;;0.73;0.45;;;;;;;23.52;50.60;99893.34;5037914;22;20052;-66
2023/08/07 11:16:22;;;;;;;0.82;0.40;;;;;;;23.44;50.54;99898.38;5029496;28;20037;-66
2023/08/07 11:18:49;;;;;;;2.83;0.75;;;;;;;23.14;52.10;99886.34;5033911;28;20507;-66
2023/08/07 11:21:14;;;;;;;3.35;0.90;;;;;;;23.08;51.99;99882.69;5033540;28;20128;-66
2023/08/07 11:23:40;;;;;;;1.00;0.52;;;;;;;23.05;52.78;99897.31;5045670;28;20521;-66
2023/08/07 11:26:07;;;;;;;1.83;0.57;;;;;;;23.21;52.64;99896.25;5016295;28;20394;-66
2023/08/07 11:28:33;;;;;;;2.08;0.75;;;;;;;23.45;52.17;99891.69;5028441;28;20041;-66
2023/08/07 11:31:02;;;;;;;2.63;0.57;;;;;;;23.46;49.56;99925.44;5015053;28;20038;-66